Impacts TAF Board INFO
FOR SITUATIONAL AWARENESS. NOT TO BE USED FOR FLIGHT PLANNING PURPOSES.
IDs:

KSLC - Salt Lake City Intl, UT, US

Issued at 0524 UTC 13 Dec 2017
Updated at 0527 UTC 13 Dec 2017
Potential Impact None Slight Moderate High
Time0512Z 13/06Z 13/07Z 13/08Z 13/09Z 13/10Z 13/11Z 13/12Z 13/13Z 13/14Z 13/15Z 13/16Z 13/17Z 13/18Z>>
Type OBS PRVL PRVL PRVL PRVL PRVL PRVL PRVL PRVL PRVL PRVL PRVL PRVL PRVL
VIS 0.25 0.25 0.25 0.25 0.25 0.25 0.25 0.25 0.25 0.25 0.25 0.25 1 1
CIG 2 2 2 2 2 2 2 2 2 2 2 2 5 5
Cover OVX OVC OVC OVC OVC OVC OVC OVC OVC OVC OVC OVC OVC OVC
FltCat LIFR LIFR LIFR LIFR LIFR LIFR LIFR LIFR LIFR LIFR LIFR LIFR IFR IFR
WX FZFG FZFG FZFG FZFG FZFG FZFG FZFG FZFG FZFG FZFG FZFG FZFG BR BR
WDir 30 20 20 20 20 20 20 20 20 20 20 20 320 320
WSpd 3 4 4 4 4 4 4 4 4 4 4 4 4 4
WGst -- -- -- -- -- -- -- -- -- -- -- -- -- --

Raw TAF
KSLC 130524Z 1306/1412 02004KT 1/4SM FZFG OVC002
  FM131700 32004KT 1SM BR OVC005
  FM131900 33006KT 3SM BR SCT005 BKN150
  FM140100 33004KT 4SM BR BCFG BKN060


Raw METAR
KSLC 130512Z 03003KT 1/4SM R16L/2000V3500FT FZFG VV002 M04/M04 A3044 RMK AO2 TWR VIS 1/2 I1001 T10391039 VISNO NW RNWY $
KSLC 130454Z 03004KT 1/4SM R16L/1400V1800FT FZFG VV002 M04/M04 A3044 RMK AO2 TWR VIS 1/2 SLP338 I1001 T10391044 VISNO NW RNWY $
KSLC 130425Z 34007KT 1/4SM R16L/1000V1400FT FZFG VV002 M04/M04 A3044 RMK AO2 TWR VIS 1/2 I1000 T10391044 VISNO NW RNWY $
KSLC 130418Z 01008KT 1/2SM R16L/1000V1400FT FZFG OVC002 M03/M04 A3044 RMK AO2 T10331044 VISNO NW RNWY $
KSLC 130406Z 35005KT 1SM R16L/1000V1200FT BR OVC003 M03/M04 A3043 RMK AO2 SFC VIS 1 1/2 T10331044 VISNO NW RNWY $
KSLC 130354Z 00000KT 1SM R16L/1200V1800FT BR OVC005 M04/M05 A3043 RMK AO2 SFC VIS 2 SNB25E35 SLP335 P0000 T10391050 VISNO NW RNWY $
KSLC 130332Z 00000KT 1SM R16L/4500VP6000FT -SN BR OVC005 M04/M05 A3043 RMK AO2 SFC VIS 1 3/4 SNB25 P0000 T10391050 VISNO NW RNWY $
KSLC 130313Z 00000KT 2SM BR OVC005 M04/M05 A3043 RMK AO2 SFC VIS 2 1/2 T10391050 VISNO NW RNWY $
KSLC 130254Z 00000KT 1SM R16L/P6000FT BR OVC003 M04/M04 A3044 RMK AO2 SFC VIS 1 1/2 SNB06E34 SLP337 P0000 60000 T10391044 58007 VISNO NW RNWY $
KSLC 130233Z 00000KT 1SM R16L/4000VP6000FT -SN BR OVC003 M04/M04 A3045 RMK AO2 SFC VIS 1 1/4 SNB06 P0000 T10391039 VISNO NW RNWY $

METAR Board
Radar Display
Forecast Discussion

FOR SITUATIONAL AWARENESS. NOT TO BE USED FOR FLIGHT PLANNING PURPOSES.